Time;durP1;ratioP1;P1;durP2;ratioP2;P2;SDS_P1;SDS_P2;PMS_P1;PMS_P2;Temp;Humidity;BMP_temperature;BMP_pressure;BME280_temperature;BME280_humidity;BME280_pressure;Samples;Min_cycle;Max_cycle;Signal;HPM_P1;HPM_P2
2023/10/06 00:01:44;;;;;;;;;9.00;7.67;;;;;18.21;65.14;101879.28;6267259;22;44784;-80
2023/10/06 00:04:15;;;;;;;;;11.67;11.33;;;;;18.36;64.24;101883.75;6264920;22;47039;-80
2023/10/06 00:06:41;;;;;;;;;16.00;14.00;;;;;18.14;64.52;101875.69;6266712;22;44739;-80
2023/10/06 00:09:21;;;;;;;;;8.33;7.33;;;;;18.36;64.79;101884.69;6239711;22;44791;-80
2023/10/06 00:11:50;;;;;;;;;11.33;9.67;;;;;18.20;64.93;101896.34;6266393;22;44817;-80
2023/10/06 00:14:38;;;;;;;;;13.33;12.00;;;;;18.16;65.29;101884.66;6239224;22;47383;-80
2023/10/06 00:17:17;;;;;;;;;17.00;13.33;;;;;18.31;65.15;101888.25;6239669;22;45043;-80
2023/10/06 00:19:59;;;;;;;;;12.33;10.67;;;;;18.32;65.00;101884.66;6266006;22;44661;-80
2023/10/06 00:22:26;;;;;;;;;12.00;11.00;;;;;18.07;65.30;101895.41;6266608;22;44795;-80
2023/10/06 00:24:59;;;;;;;;;14.00;12.67;;;;;18.01;65.84;101889.13;6238464;22;45368;-81
2023/10/06 00:27:46;;;;;;;;;12.67;11.00;;;;;17.98;65.83;101903.50;6238663;22;44749;-80
2023/10/06 00:30:11;;;;;;;;;13.33;11.33;;;;;17.89;66.20;101896.25;6265072;22;44698;-80
2023/10/06 00:32:36;;;;;;;;;14.33;13.00;;;;;17.85;66.31;101901.66;6238252;22;44957;-80
2023/10/06 00:35:11;;;;;;;;;13.00;13.00;;;;;17.82;66.23;101894.44;6264142;22;45366;-80
2023/10/06 00:37:39;;;;;;;;;15.00;13.00;;;;;17.88;66.74;101896.28;6239277;22;44735;-82
2023/10/06 00:40:19;;;;;;;;;12.00;11.67;;;;;17.82;66.80;101902.50;6239531;22;44859;-80
2023/10/06 00:42:51;;;;;;;;;13.00;13.00;;;;;17.87;66.98;101900.75;6240285;22;44830;-80
2023/10/06 00:45:16;;;;;;;;;13.33;12.00;;;;;17.64;67.24;101894.38;6238314;22;45273;-80
2023/10/06 00:47:41;;;;;;;;;12.67;12.00;;;;;17.68;67.46;101902.47;6239238;22;44947;-80
2023/10/06 00:50:15;;;;;;;;;14.33;13.00;;;;;17.80;67.40;101897.13;6238969;22;44879;-80
2023/10/06 00:52:44;;;;;;;;;14.33;13.00;;;;;17.84;67.27;101900.75;6240620;22;45140;-80
2023/10/06 00:55:12;;;;;;;;;14.50;12.50;;;;;17.66;67.46;101888.13;6238359;22;47071;-80
2023/10/06 00:57:38;;;;;;;;;15.00;12.33;;;;;17.63;67.67;101897.97;6239375;22;44848;-79
2023/10/06 01:00:37;;;;;;;;;14.33;11.33;;;;;17.82;67.42;101891.75;6265855;22;44907;-80
2023/10/06 01:03:09;;;;;;;;;12.33;12.33;;;;;17.53;67.78;101883.56;6262677;22;44848;-79
2023/10/06 01:05:36;;;;;;;;;14.33;14.00;;;;;17.53;68.21;101891.63;6240242;22;47091;-80
2023/10/06 01:08:05;;;;;;;;;11.67;10.00;;;;;17.50;67.78;101891.66;6238698;22;45252;-80
2023/10/06 01:10:34;;;;;;;;;12.33;11.67;;;;;17.48;68.02;101888.94;6239279;22;44845;-79
2023/10/06 01:13:11;;;;;;;;;15.00;12.00;;;;;17.46;67.86;101896.09;6239998;22;44976;-80
2023/10/06 01:15:45;;;;;;;;;13.67;12.67;;;;;17.44;68.13;101891.63;6266244;22;45262;-80
2023/10/06 01:18:35;;;;;;;;;9.67;9.67;;;;;17.62;67.73;101880.94;6239692;22;44724;-80
2023/10/06 01:21:13;;;;;;;;;10.67;10.67;;;;;17.45;68.25;101883.56;6238255;22;44685;-80
2023/10/06 01:23:47;;;;;;;;;11.33;11.33;;;;;17.40;68.13;101878.16;6240976;22;44792;-79
2023/10/06 01:26:13;;;;;;;;;12.00;10.33;;;;;17.37;68.09;101875.47;6238698;22;47308;-80
2023/10/06 01:28:46;;;;;;;;;14.67;9.00;;;;;17.32;68.46;101887.97;6239981;22;44826;-79
2023/10/06 01:31:14;;;;;;;;;11.33;11.00;;;;;17.29;68.23;101887.97;6239576;22;44744;-80
2023/10/06 01:33:40;;;;;;;;;14.67;13.00;;;;;17.26;68.73;101885.25;6239775;22;44745;-80
2023/10/06 01:36:13;;;;;;;;;18.33;16.00;;;;;17.40;68.77;101867.41;6239423;22;46625;-80
2023/10/06 01:38:43;;;;;;;;;12.00;10.67;;;;;17.30;68.77;101865.56;6239936;22;44856;-81
2023/10/06 01:41:11;;;;;;;;;15.67;12.67;;;;;17.22;69.10;101875.38;6239885;22;44889;-81
2023/10/06 01:43:38;;;;;;;;;12.00;12.00;;;;;17.14;68.99;101878.03;6266647;22;44744;-80
2023/10/06 01:46:07;;;;;;;;;11.67;9.00;;;;;17.13;69.27;101865.50;6266784;22;45842;-80
2023/10/06 01:48:33;;;;;;;;;15.67;12.33;;;;;17.09;69.41;101868.16;6238722;22;44901;-80
2023/10/06 01:50:59;;;;;;;;;12.00;10.67;;;;;17.04;69.37;101861.84;6240843;22;44715;-80
2023/10/06 01:53:32;;;;;;;;;12.67;11.33;;;;;17.04;69.89;101853.78;6267572;22;44828;-80
2023/10/06 01:56:02;;;;;;;;;14.00;12.33;;;;;16.96;69.84;101848.38;6267193;22;45203;-80
2023/10/06 01:58:40;;;;;;;;;14.33;12.67;;;;;16.99;69.65;101859.16;6266974;22;44739;-79
2023/10/06 02:01:06;;;;;;;;;13.67;13.00;;;;;16.91;70.22;101850.16;6240148;22;44717;-80
2023/10/06 02:03:38;;;;;;;;;13.33;11.00;;;;;17.13;69.86;101856.53;6239337;22;44813;-80
2023/10/06 02:06:04;;;;;;;;;10.00;10.00;;;;;16.88;70.34;101853.69;6266691;22;45140;-80
2023/10/06 02:08:30;;;;;;;;;11.00;9.67;;;;;16.90;70.22;101862.66;6239337;22;44790;-80
2023/10/06 02:11:01;;;;;;;;;15.67;12.00;;;;;17.04;70.43;101864.53;6266855;22;44714;-81
2023/10/06 02:13:29;;;;;;;;;10.33;9.00;;;;;16.90;70.40;101865.34;6239980;22;44862;-80
2023/10/06 02:15:58;;;;;;;;;11.00;11.00;;;;;16.90;70.48;101851.91;6265929;22;44913;-81
2023/10/06 02:18:40;;;;;;;;;14.67;12.00;;;;;17.03;70.37;101857.34;6266716;22;44818;-80
2023/10/06 02:21:09;;;;;;;;;13.00;11.67;;;;;16.88;70.34;101863.56;6239740;22;44897;-80
2023/10/06 02:23:38;;;;;;;;;9.33;8.67;;;;;16.88;70.72;101866.25;6239674;22;44806;-80
2023/10/06 02:26:09;;;;;;;;;13.33;13.33;;;;;16.84;70.63;101851.88;6239403;22;47143;-80
2023/10/06 02:28:49;;;;;;;;;7.00;7.00;;;;;16.76;70.73;101829.41;6265635;22;44821;-79
2023/10/06 02:31:16;;;;;;;;;11.67;10.00;;;;;16.65;71.50;101839.22;6267441;22;44692;-81
2023/10/06 02:33:46;;;;;;;;;11.33;11.33;;;;;16.62;71.25;101844.53;6267606;22;45110;-80
2023/10/06 02:36:18;;;;;;;;;13.33;9.00;;;;;16.70;71.39;101858.91;6266220;22;45325;-80
2023/10/06 02:39:33;;;;;;;;;11.00;10.00;;;;;16.89;70.98;101860.00;6266900;22;44820;-80
2023/10/06 02:42:09;;;;;;;;;10.67;10.33;;;;;16.63;71.28;101824.88;6213940;22;44769;-79
2023/10/06 02:44:38;;;;;;;;;12.00;11.00;;;;;16.57;71.56;101842.72;6240187;22;44884;-80
2023/10/06 02:47:11;;;;;;;;;13.00;11.67;;;;;16.75;71.67;101841.06;6267882;22;45501;-80
2023/10/06 02:49:46;;;;;;;;;11.00;9.33;;;;;16.64;71.25;101842.78;6267004;22;44784;-79
2023/10/06 02:52:15;;;;;;;;;10.33;10.00;;;;;16.65;71.48;101849.94;6240432;22;45255;-79
2023/10/06 02:54:55;;;;;;;;;10.00;10.00;;;;;16.37;71.83;101802.31;6240490;22;44740;-79
2023/10/06 02:57:21;;;;;;;;;15.00;12.33;;;;;16.48;71.44;101831.94;6267782;22;45123;-79
2023/10/06 03:02:42;;;;;;;;;13.67;11.67;;;;;16.55;71.30;101846.31;6251130;22;44683;-79
2023/10/06 03:05:12;;;;;;;;;12.00;12.00;;;;;16.49;71.75;101857.00;6267804;22;45205;-79
2023/10/06 03:07:46;;;;;;;;;13.00;11.67;;;;;16.40;72.03;101839.94;6266081;22;46120;-79
2023/10/06 03:10:12;;;;;;;;;9.67;9.67;;;;;16.38;71.77;101839.03;6239396;22;45111;-79
2023/10/06 03:12:42;;;;;;;;;10.00;9.67;;;;;16.58;71.76;101849.00;6267155;22;45180;-79
2023/10/06 03:16:12;;;;;;;;;10.67;10.00;;;;;16.57;71.71;101849.91;6238969;22;45507;-78
2023/10/06 03:18:23;;;;;;;;;12.67;12.33;;;;;16.35;71.89;101862.25;6233426;22;45250;-81
2023/10/06 03:20:49;;;;;;;;;14.00;11.33;;;;;16.35;72.10;101859.56;6239203;22;44743;-79
2023/10/06 03:26:45;;;;;;;;;10.33;10.33;;;;;16.54;71.62;101857.91;6267035;22;44716;-79
2023/10/06 03:29:44;;;;;;;;;14.67;13.33;;;;;16.40;72.24;101861.41;6266278;22;45153;-78
2023/10/06 03:31:58;;;;;;;;;11.00;10.00;;;;;16.27;72.35;101859.50;6262354;22;45110;-79
2023/10/06 03:34:24;;;;;;;;;5.67;5.67;;;;;16.24;72.51;101853.19;6240317;22;44843;-79
2023/10/06 03:36:52;;;;;;;;;16.00;13.67;;;;;16.20;72.59;101846.94;6267880;22;44721;-78
2023/10/06 03:39:28;;;;;;;;;11.00;10.00;;;;;16.25;72.41;101855.00;6239275;22;46728;-79
2023/10/06 03:42:00;;;;;;;;;17.33;12.00;;;;;16.14;72.66;101828.97;6239784;22;44783;-79
2023/10/06 03:44:26;;;;;;;;;11.00;9.33;;;;;16.15;72.64;101844.19;6267609;22;44730;-80
2023/10/06 03:47:07;;;;;;;;;12.00;12.00;;;;;16.24;72.82;101847.84;6267274;22;44763;-78
2023/10/06 03:49:44;;;;;;;;;13.33;12.00;;;;;16.27;73.02;101847.88;6242569;22;46572;-78
2023/10/06 03:52:13;;;;;;;;;13.00;10.33;;;;;16.32;72.88;101847.03;6266583;22;44776;-80
2023/10/06 03:54:39;;;;;;;;;8.67;8.33;;;;;16.19;72.91;101848.69;6267231;22;45193;-79
2023/10/06 03:57:05;;;;;;;;;13.33;11.33;;;;;16.16;72.87;101840.63;6267160;22;44804;-79
2023/10/06 03:59:37;;;;;;;;;10.67;10.67;;;;;16.24;73.03;101858.56;6238715;22;46809;-79
2023/10/06 04:02:03;;;;;;;;;9.67;9.67;;;;;16.19;73.05;101850.47;6238723;22;44783;-79
2023/10/06 04:04:28;;;;;;;;;11.33;11.33;;;;;16.23;73.07;101857.69;6240103;22;44879;-79
2023/10/06 04:06:56;;;;;;;;;12.00;12.00;;;;;16.25;73.15;101857.69;6240515;22;44888;-79
2023/10/06 04:09:27;;;;;;;;;12.00;12.00;;;;;16.17;72.85;101839.72;6239177;22;47120;-79
2023/10/06 04:11:54;;;;;;;;;9.33;9.00;;;;;16.20;73.09;101853.19;6266727;22;44956;-78
2023/10/06 04:14:20;;;;;;;;;16.00;14.00;;;;;16.31;73.02;101855.06;6267406;22;45145;-79
2023/10/06 04:16:46;;;;;;;;;11.33;11.00;;;;;16.17;73.37;101860.31;6267492;22;44669;-79
2023/10/06 04:19:15;;;;;;;;;14.33;13.00;;;;;16.20;73.58;101853.19;6266244;22;44909;-79
2023/10/06 04:21:47;;;;;;;;;14.00;11.67;;;;;16.31;73.28;101863.13;6266764;22;44700;-79
2023/10/06 04:24:14;;;;;;;;;13.33;11.67;;;;;16.16;73.36;101864.78;6239781;22;45229;-79
2023/10/06 04:26:40;;;;;;;;;14.67;11.67;;;;;16.12;73.35;101851.34;6239712;22;44877;-79
2023/10/06 04:29:14;;;;;;;;;13.33;12.00;;;;;16.11;73.21;101858.47;6265698;22;45055;-79
2023/10/06 04:31:40;;;;;;;;;14.33;13.00;;;;;16.09;73.33;101857.53;6265944;22;44840;-78
2023/10/06 04:34:06;;;;;;;;;16.33;12.33;;;;;16.04;73.42;101848.56;6239951;22;44887;-79
2023/10/06 04:36:33;;;;;;;;;13.00;13.00;;;;;16.08;73.60;101857.53;6239610;22;44879;-79
2023/10/06 04:38:59;;;;;;;;;12.67;11.67;;;;;16.07;73.51;101856.63;6238378;22;46935;-79
2023/10/06 04:41:25;;;;;;;;;10.33;9.00;;;;;16.06;73.54;101849.50;6266416;22;44694;-79
2023/10/06 04:43:52;;;;;;;;;12.33;12.33;;;;;16.05;73.76;101850.34;6240314;22;44787;-79
2023/10/06 04:46:17;;;;;;;;;13.33;12.00;;;;;16.06;73.74;101848.56;6239517;22;44789;-79
2023/10/06 04:48:42;;;;;;;;;12.67;11.67;;;;;16.08;73.54;101853.09;6265085;22;46675;-80
2023/10/06 04:51:12;;;;;;;;;12.00;12.00;;;;;16.11;73.49;101853.09;6238342;22;44866;-80
2023/10/06 04:53:38;;;;;;;;;18.67;14.67;;;;;16.07;73.60;101856.63;6266235;22;44898;-80
2023/10/06 04:56:08;;;;;;;;;10.67;10.33;;;;;16.18;73.62;101854.97;6237065;22;45322;-79
2023/10/06 04:58:42;;;;;;;;;19.67;13.67;;;;;16.05;73.74;101852.16;6238527;22;45241;-79
2023/10/06 05:01:11;;;;;;;;;14.00;12.00;;;;;15.99;73.86;101853.88;6266713;22;44719;-79
2023/10/06 05:03:47;;;;;;;;;13.00;13.00;;;;;16.14;73.97;101853.13;6239665;22;44669;-80
2023/10/06 05:06:15;;;;;;;;;12.33;12.00;;;;;16.04;74.25;101855.69;6267420;22;45292;-79
2023/10/06 05:08:41;;;;;;;;;18.00;14.33;;;;;16.00;74.22;101852.13;6238568;22;46626;-79
2023/10/06 05:11:17;;;;;;;;;12.00;12.00;;;;;16.00;74.33;101849.44;6266134;22;45122;-79
2023/10/06 05:13:43;;;;;;;;;10.67;10.00;;;;;15.99;74.33;101848.50;6266683;22;44876;-78
2023/10/06 05:16:11;;;;;;;;;12.67;12.67;;;;;15.98;74.53;101840.47;6265881;22;45116;-79
2023/10/06 05:18:38;;;;;;;;;12.33;12.00;;;;;16.02;74.46;101850.34;6239185;22;46609;-78
2023/10/06 05:21:06;;;;;;;;;11.67;11.67;;;;;16.02;74.39;101847.66;6238486;22;44729;-79
2023/10/06 05:23:34;;;;;;;;;11.33;10.00;;;;;16.05;74.58;101846.78;6260885;22;44789;-79
2023/10/06 05:26:07;;;;;;;;;17.33;14.67;;;;;16.18;74.59;101851.38;6214487;22;44898;-79
2023/10/06 05:28:34;;;;;;;;;12.33;12.33;;;;;15.99;74.64;101842.25;6238767;22;47104;-78
2023/10/06 05:31:00;;;;;;;;;12.67;11.00;;;;;16.00;74.63;101838.69;6238917;22;44856;-78
2023/10/06 05:33:28;;;;;;;;;12.33;12.33;;;;;15.92;74.53;101819.84;6237906;22;44881;-79
2023/10/06 05:35:54;;;;;;;;;14.00;12.00;;;;;15.99;74.70;101842.25;6239238;22;44848;-79
2023/10/06 05:38:20;;;;;;;;;14.33;13.00;;;;;16.07;74.60;101843.22;6265343;22;45546;-79
2023/10/06 05:40:52;;;;;;;;;12.67;12.67;;;;;16.14;74.66;101849.56;6265880;22;44696;-79
2023/10/06 05:43:17;;;;;;;;;15.00;13.00;;;;;16.09;74.62;101845.94;6237895;22;44849;-79
2023/10/06 05:45:52;;;;;;;;;14.33;12.00;;;;;16.13;74.62;101842.38;6238134;22;44955;-79
2023/10/06 05:48:22;;;;;;;;;17.67;14.67;;;;;16.09;74.93;101821.78;6238171;22;46993;-79
2023/10/06 05:50:48;;;;;;;;;12.00;12.00;;;;;16.08;74.65;101831.63;6212692;22;44853;-80
2023/10/06 05:53:22;;;;;;;;;11.33;11.33;;;;;16.06;74.75;101838.75;6237861;22;45153;-80
2023/10/06 05:55:52;;;;;;;;;13.00;13.00;;;;;16.13;74.89;101840.59;6266142;22;44822;-79
2023/10/06 05:58:23;;;;;;;;;12.00;11.33;;;;;16.01;75.19;101843.16;6236743;22;46845;-81
2023/10/06 06:01:05;;;;;;;;;15.67;13.33;;;;;16.02;74.83;101842.28;6260335;22;45087;-81
2023/10/06 06:03:31;;;;;;;;;14.67;12.33;;;;;16.03;75.08;101848.56;6258967;22;44749;-80
2023/10/06 06:06:02;;;;;;;;;14.33;12.67;;;;;16.00;74.93;101844.97;6232055;22;45012;-80
2023/10/06 06:08:30;;;;;;;;;12.00;12.00;;;;;15.99;75.26;101850.31;6239176;22;47018;-79
2023/10/06 06:10:57;;;;;;;;;11.67;10.67;;;;;16.00;75.12;101849.44;6267059;22;44704;-79
2023/10/06 06:13:22;;;;;;;;;15.67;14.00;;;;;15.99;75.28;101858.34;6268079;22;44699;-79
2023/10/06 06:15:51;;;;;;;;;15.33;13.00;;;;;15.96;74.98;101844.91;6267410;22;45120;-80
2023/10/06 06:18:16;;;;;;;;;12.33;11.67;;;;;15.99;75.15;101855.66;6240403;22;46822;-79
2023/10/06 06:20:49;;;;;;;;;11.67;11.33;;;;;16.28;74.94;101865.75;6267366;22;44754;-80
2023/10/06 06:23:15;;;;;;;;;14.33;12.33;;;;;16.09;74.88;101860.22;6242532;22;44800;-79
2023/10/06 06:25:42;;;;;;;;;12.00;12.00;;;;;16.14;75.06;101862.97;6269332;22;44724;-80
2023/10/06 06:28:08;;;;;;;;;13.67;13.33;;;;;16.15;74.73;101868.34;6205455;22;46963;-79
2023/10/06 06:30:37;;;;;;;;;13.33;13.33;;;;;16.15;74.66;101854.91;6263401;22;44838;-80
2023/10/06 06:33:12;;;;;;;;;14.33;11.67;;;;;16.28;74.61;101873.81;6226485;22;46624;-81
2023/10/06 06:48:35;;;;;;;;;15.00;14.00;;;;;16.64;74.10;101880.38;6190655;22;45759;-80
2023/10/06 06:53:32;;;;;;;;;13.00;11.67;;;;;16.59;74.35;101864.22;6133026;22;46603;-81
2023/10/06 07:12:54;;;;;;;;;13.33;13.33;;;;;17.02;73.81;101871.69;6168380;22;44829;31
2023/10/06 07:18:03;;;;;;;;;21.00;17.33;;;;;16.70;74.29;101842.81;6222724;22;46514;-81
2023/10/06 07:20:33;;;;;;;;;16.00;16.00;;;;;16.97;74.04;101896.75;6146935;22;46694;-80
2023/10/06 07:23:04;;;;;;;;;15.33;14.67;;;;;17.17;73.53;101882.53;6207752;22;45214;-79
2023/10/06 07:25:33;;;;;;;;;14.00;14.00;;;;;16.89;73.59;101852.81;6208154;22;45000;-78
2023/10/06 07:27:59;;;;;;;;;15.33;14.33;;;;;17.19;73.40;101889.72;6212407;22;44771;-80
2023/10/06 07:30:29;;;;;;;;;17.33;17.33;;;;;17.42;73.04;101893.41;6239547;22;45218;-79
2023/10/06 07:38:31;;;;;;;;;18.67;17.00;;;;;17.68;72.61;101885.44;6094191;22;46229;-79
2023/10/06 08:30:55;;;;;;;;;20.33;19.67;;;;;19.22;68.33;101934.00;6114412;22;46451;-81
2023/10/06 08:36:10;;;;;;;;;20.33;20.33;;;;;19.13;68.03;101918.75;6218689;22;46096;-81
2023/10/06 09:12:25;;;;;;;;;19.00;17.33;;;;;20.33;64.75;101918.19;6222838;22;47334;-82
2023/10/06 09:14:55;;;;;;;;;19.00;17.67;;;;;20.35;64.73;101932.56;6197555;22;44942;-82
2023/10/06 09:17:32;;;;;;;;;17.67;16.67;;;;;20.40;64.19;101936.16;6198265;22;44831;-82
2023/10/06 09:20:04;;;;;;;;;18.00;15.67;;;;;20.27;64.38;101910.13;6197972;22;44853;-82
2023/10/06 09:22:48;;;;;;;;;14.00;14.00;;;;;20.55;64.01;101938.72;6198997;22;46962;-84
2023/10/06 09:25:14;;;;;;;;;17.33;16.00;;;;;20.15;63.78;101900.28;6198834;22;45399;-83
2023/10/06 09:28:13;;;;;;;;;13.33;9.67;;;;;20.36;63.52;101904.66;6199525;22;44719;-83
2023/10/06 09:31:04;;;;;;;;;23.00;17.67;;;;;20.48;63.62;101901.84;6199719;22;45056;-83
2023/10/06 09:33:40;;;;;;;;;16.67;14.67;;;;;20.78;63.14;101932.22;6202501;22;46731;-82
2023/10/06 09:36:16;;;;;;;;;17.33;15.00;;;;;20.79;62.75;101928.63;6202782;22;45181;-83
2023/10/06 09:39:13;;;;;;;;;17.33;16.00;;;;;20.69;62.72;101918.81;6226250;22;44798;-83
2023/10/06 09:41:45;;;;;;;;;20.67;14.00;;;;;20.94;62.36;101928.47;6227512;22;45300;-81
2023/10/06 09:44:22;;;;;;;;;20.67;20.33;;;;;21.13;61.90;101936.41;6199982;22;46667;-81
2023/10/06 09:46:59;;;;;;;;;16.00;16.00;;;;;21.02;62.28;101898.66;6226417;22;45257;-81
2023/10/06 09:49:28;;;;;;;;;20.67;16.00;;;;;21.14;61.90;101900.31;6225812;22;45375;-81
2023/10/06 09:52:13;;;;;;;;;17.67;16.67;;;;;21.22;61.02;101900.25;6198055;22;45440;-82
2023/10/06 09:58:18;;;;;;;;;17.67;16.00;;;;;21.35;60.27;101919.03;6230697;22;44904;-81
2023/10/06 10:00:54;;;;;;;;;15.67;14.67;;;;;21.41;60.41;101919.84;6202722;22;44666;-82
2023/10/06 10:03:41;;;;;;;;;15.67;13.33;;;;;21.18;60.24;101905.66;6223167;22;45285;-81
2023/10/06 10:06:15;;;;;;;;;15.67;10.67;;;;;21.58;60.29;101916.06;6224291;22;46003;-81
2023/10/06 10:09:07;;;;;;;;;14.33;13.33;;;;;21.71;59.87;101922.22;6225388;22;45413;-81
2023/10/06 10:11:46;;;;;;;;;18.00;13.33;;;;;21.68;59.64;101926.78;6212731;22;44908;-81
2023/10/06 10:14:30;;;;;;;;;18.00;14.67;;;;;21.67;59.58;101920.47;6253010;22;45548;-82
2023/10/06 10:17:24;;;;;;;;;11.33;11.00;;;;;21.98;58.59;101922.75;6228832;22;47999;-82
2023/10/06 10:20:46;;;;;;;;;19.67;14.00;;;;;21.93;58.46;101917.38;6227717;22;44622;-84
2023/10/06 10:23:16;;;;;;;;;10.67;10.67;;;;;21.86;58.04;101915.69;6229859;22;45249;-81
2023/10/06 10:25:43;;;;;;;;;14.33;11.00;;;;;21.72;58.31;101918.59;6228296;22;45409;-81
2023/10/06 10:28:27;;;;;;;;;15.00;12.00;;;;;22.02;57.74;101921.78;6226296;22;47677;-82
2023/10/06 10:31:13;;;;;;;;;19.33;12.00;;;;;22.11;57.79;101920.75;6239897;22;44876;-82
2023/10/06 10:33:48;;;;;;;;;9.00;8.67;;;;;22.07;57.01;101902.75;6239323;22;44852;-82
2023/10/06 10:39:18;;;;;;;;;10.33;8.00;;;;;22.26;56.54;101898.88;6241458;22;45099;-81
2023/10/06 10:44:28;;;;;;;;;10.00;8.33;;;;;22.14;55.30;101856.56;6147610;22;46328;-82
2023/10/06 10:46:56;;;;;;;;;11.67;10.00;;;;;22.02;55.32;101858.59;6223142;22;44856;-82
2023/10/06 10:49:32;;;;;;;;;7.00;7.00;;;;;22.35;55.64;101868.00;6223798;22;46682;-81
2023/10/06 10:52:23;;;;;;;;;8.33;8.33;;;;;22.29;54.85;101855.44;6252194;22;45445;-82
2023/10/06 10:54:50;;;;;;;;;8.00;8.00;;;;;22.17;55.33;101859.22;6225357;22;44863;-81
2023/10/06 10:57:21;;;;;;;;;9.67;9.67;;;;;22.38;54.98;101865.25;6256275;22;45328;-81
2023/10/06 11:02:44;;;;;;;;;11.67;9.00;;;;;22.57;53.98;101874.84;6254177;22;45297;-82
2023/10/06 11:05:19;;;;;;;;;10.33;10.00;;;;;22.22;54.82;101841.97;6252509;22;45353;-81
2023/10/06 11:08:06;;;;;;;;;7.33;6.33;;;;;22.53;53.80;101854.13;6255260;22;44781;-83
2023/10/06 11:10:33;;;;;;;;;10.00;8.33;;;;;22.37;54.09;101858.91;6252228;22;45659;-81
2023/10/06 11:13:15;;;;;;;;;9.33;9.33;;;;;22.72;53.77;101870.06;6222752;22;45425;-81
2023/10/06 11:15:45;;;;;;;;;8.00;6.00;;;;;22.51;54.02;101865.94;6221398;22;44730;-83
2023/10/06 11:18:13;;;;;;;;;9.67;9.67;;;;;22.25;53.63;101828.44;6253127;22;45320;-82
2023/10/06 11:20:47;;;;;;;;;7.33;7.00;;;;;22.65;53.11;101861.16;6228046;22;47173;-80
2023/10/06 11:26:35;;;;;;;;;10.00;8.33;;;;;22.92;51.62;101857.00;6194960;23;44973;-82
2023/10/06 11:29:00;;;;;;;;;7.00;7.00;;;;;22.53;51.95;101832.44;6189933;22;45001;-82
2023/10/06 11:31:27;;;;;;;;;10.00;6.33;;;;;22.69;52.34;101856.56;6172250;22;46065;-80
2023/10/06 11:36:33;;;;;;;;;6.67;6.67;;;;;22.58;51.06;101813.34;6213067;22;44868;-81
2023/10/06 11:39:03;;;;;;;;;3.67;3.67;;;;;22.79;51.70;101822.91;6225399;22;44690;-82
2023/10/06 11:41:29;;;;;;;;;7.33;6.33;;;;;22.77;51.78;101846.47;6201399;22;47100;-84
2023/10/06 11:43:58;;;;;;;;;6.33;6.00;;;;;22.72;52.20;101824.88;6225732;22;44677;-81
2023/10/06 11:46:24;;;;;;;;;8.33;7.33;;;;;22.63;51.51;101811.47;6220086;22;45507;-81
2023/10/06 11:48:53;;;;;;;;;4.67;4.00;;;;;22.73;50.77;101834.78;6196576;22;45375;-81
2023/10/06 11:51:43;;;;;;;;;9.00;8.00;;;;;22.81;51.04;101810.22;6217104;22;46363;-81
2023/10/06 11:54:11;;;;;;;;;7.67;5.00;;;;;22.73;50.69;101806.78;6196283;22;45347;-82
2023/10/06 11:56:57;;;;;;;;;9.67;7.00;;;;;22.92;50.40;101813.59;6194557;22;45310;-82
2023/10/06 11:59:26;;;;;;;;;8.33;8.33;;;;;22.68;50.53;101797.81;6193757;22;45517;-80
2023/10/06 12:02:05;;;;;;;;;10.33;8.33;;;;;22.78;50.79;101783.16;6192523;22;46486;-80
2023/10/06 12:04:50;;;;;;;;;6.33;5.00;;;;;23.13;50.16;101811.44;6225652;22;44845;-82
2023/10/06 12:07:22;;;;;;;;;6.00;6.00;;;;;23.23;50.07;101814.81;6220359;22;45276;-81
2023/10/06 12:16:35;;;;;;;;;8.00;8.00;;;;;23.06;49.66;101782.63;6100861;23;45434;-80
2023/10/06 12:19:01;;;;;;;;;7.33;4.67;;;;;23.07;49.59;101795.28;6076855;23;45369;-79
2023/10/06 12:21:26;;;;;;;;;6.25;4.75;;;;;23.20;49.42;101818.50;6097611;23;45438;-80
2023/10/06 12:23:59;;;;;;;;;10.33;7.00;;;;;23.50;48.91;101800.63;6080124;23;46844;-80
2023/10/06 12:26:28;;;;;;;;;6.50;4.50;;;;;23.33;48.58;101803.75;6100181;23;45126;-83
2023/10/06 12:28:54;;;;;;;;;6.00;5.67;;;;;23.19;48.98;101777.81;6097811;23;44856;-84
2023/10/06 12:31:22;;;;;;;;;6.33;5.00;;;;;23.32;48.77;101792.91;6098485;23;44778;-83
2023/10/06 12:34:20;;;;;;;;;9.00;6.00;;;;;23.45;48.50;101775.44;6075730;23;47220;-83
2023/10/06 12:36:48;;;;;;;;;5.75;4.75;;;;;23.53;48.91;101789.72;6099180;23;44851;-84
2023/10/06 12:42:31;;;;;;;;;5.00;5.00;;;;;23.47;47.83;101768.13;6040994;23;45304;-84
2023/10/06 12:45:20;;;;;;;;;7.33;7.33;;;;;23.63;48.62;101784.97;6016337;23;48599;-84
2023/10/06 12:47:48;;;;;;;;;6.00;5.67;;;;;23.43;48.11;101755.56;6041531;23;45597;-83
2023/10/06 12:50:22;;;;;;;;;4.00;4.00;;;;;23.54;48.63;101763.44;6022961;23;45352;-84
2023/10/06 12:56:32;;;;;;;;;9.33;9.33;;;;;23.57;48.02;101757.94;6166571;23;44991;-83
2023/10/06 13:04:15;;;;;;;;;5.75;4.50;;;;;23.74;47.78;101777.44;6239284;22;45415;-82
2023/10/06 13:06:53;;;;;;;;;7.00;5.00;;;;;23.58;48.25;101761.56;6251077;22;45625;-83
2023/10/06 13:09:21;;;;;;;;;5.25;4.25;;;;;23.59;48.24;101766.94;6222559;22;45449;-82
2023/10/06 13:11:47;;;;;;;;;8.50;7.00;;;;;23.61;48.30;101780.47;6222223;22;44805;-82
2023/10/06 13:14:20;;;;;;;;;8.00;5.75;;;;;23.76;47.60;101778.28;6248945;22;45332;-82
2023/10/06 13:16:46;;;;;;;;;7.00;7.00;;;;;23.62;48.20;101761.44;6221823;22;47022;-81
2023/10/06 13:19:11;;;;;;;;;5.50;4.50;;;;;23.48;48.07;101741.88;6249517;22;45600;-82
2023/10/06 13:52:52;;;;;;;;;6.00;6.00;;;;;23.89;46.63;101731.84;6195870;22;45614;-82
2023/10/06 13:58:05;;;;;;;;;6.00;6.00;;;;;23.76;46.82;101717.66;6205156;22;46032;-82
2023/10/06 14:00:40;;;;;;;;;7.33;6.67;;;;;23.75;46.84;101708.63;6230874;22;45423;-82
2023/10/06 14:13:43;;;;;;;;;6.33;5.00;;;;;23.86;47.03;101745.50;6086165;22;46702;-81
2023/10/06 14:16:09;;;;;;;;;7.00;6.33;;;;;23.83;47.38;101742.84;6234219;22;44731;-82
2023/10/06 14:18:40;;;;;;;;;3.67;2.00;;;;;23.89;47.04;101732.72;6233301;22;44872;-82
2023/10/06 14:21:06;;;;;;;;;5.67;5.00;;;;;23.86;47.23;101742.78;6235336;22;44903;-81
2023/10/06 14:24:05;;;;;;;;;5.67;4.33;;;;;23.92;47.07;101729.06;6241281;22;44975;-83
2023/10/06 14:26:34;;;;;;;;;6.67;6.00;;;;;23.75;46.84;101714.03;6140855;22;45073;-82
2023/10/06 14:29:05;;;;;;;;;6.00;5.00;;;;;23.67;46.92;101694.34;6230452;22;45149;-83
2023/10/06 14:31:37;;;;;;;;;6.00;6.00;;;;;23.73;47.34;101699.63;6227689;22;45519;-81
2023/10/06 14:34:46;;;;;;;;;5.00;4.33;;;;;23.93;46.95;101731.69;6250612;22;45430;-83
2023/10/06 14:37:25;;;;;;;;;6.67;6.00;;;;;23.90;46.77;101728.19;6227819;22;45328;-83
2023/10/06 14:48:45;;;;;;;;;5.00;5.00;;;;;24.17;44.90;101722.00;6257678;22;44621;-82
2023/10/06 14:51:22;;;;;;;;;6.00;5.67;;;;;23.93;45.23;101695.50;6252206;22;45514;-82
2023/10/06 14:53:51;;;;;;;;;5.67;5.00;;;;;24.11;45.19;101727.63;6252577;22;45301;-83
2023/10/06 14:56:17;;;;;;;;;3.33;3.33;;;;;23.87;44.88;101707.41;6252672;22;47064;-82
2023/10/06 14:58:56;;;;;;;;;3.67;3.00;;;;;23.76;44.35;101694.09;6260410;22;45413;-83
2023/10/06 15:01:26;;;;;;;;;3.50;3.25;;;;;24.07;44.04;101715.03;6229576;22;44766;-82
2023/10/06 15:04:02;;;;;;;;;3.67;2.33;;;;;23.70;44.06;101677.94;6253646;22;44910;-83
2023/10/06 15:06:28;;;;;;;;;3.00;3.00;;;;;23.96;43.32;101717.16;6227002;22;47071;-83
2023/10/06 15:09:08;;;;;;;;;4.00;2.25;;;;;24.07;42.33;101696.03;6259879;22;44824;-84
2023/10/06 15:11:43;;;;;;;;;3.50;3.50;;;;;24.05;43.06;101697.88;6256884;22;44714;-84
2023/10/06 15:14:25;;;;;;;;;5.00;5.00;;;;;24.12;42.72;101704.06;6258646;22;45207;-84
2023/10/06 15:16:58;;;;;;;;;4.00;3.00;;;;;23.92;43.05;101705.47;6250871;22;46037;-83
2023/10/06 15:19:24;;;;;;;;;3.00;3.00;;;;;23.96;42.77;101714.44;6226671;22;44941;-83
2023/10/06 15:21:52;;;;;;;;;2.33;2.33;;;;;24.00;42.94;101688.09;6250645;22;45316;-82